Rollingstone, MN (55969)

2:37 AM CDT on September 02, 2014 (GMT -0500)
Minnesota | Change Station
CLOSE
Current Station
Personal Weather Station
Location: Altura, MN
Elevation: 1165 ft
Nearby Weather Stations

Elev 1165 ft 44.07 °N, 91.94 °W | Updated 4 seconds ago

Clear
Clear
59.5 °F
Feels Like 59.5 °F
N
0.7
Wind Variable Wind from SE
Gusts 3.1 mph

Today
High -- | Low -- °F
--% Chance of Precip.
Yesterday
High -- | Low -- °F
Precip. -- in
6:31 AM 7:41 PM
Waxing Crescent, 49% visible
Pressure 29.85 in
Visibility 10.0 miles
Clouds Clear
Dew Point 54 °F
Humidity 82%
Rainfall 0.00 in
Snow Depth Not available.
UV 0 out of 12
Pollen 2.90 out of 12
Air Quality Not available.
Flu Activity Not available.
METAR KONA 020715Z AUTO 00000KT 10SM CLR 15/14 A2985 RMK AO2

More Conditions Fewer Conditions

Pressure 29.85 in
Visibility 10.0 miles
Clouds Clear
Dew Point 54 °F
Humidity 82%
Rainfall 0.00 in
Snow Depth Not available.
UV 0 out of 12
Pollen 2.90 out of 12
Air Quality Not available.
Flu Activity Not available.
METAR KONA 020715Z AUTO 00000KT 10SM CLR 15/14 A2985 RMK AO2

More Conditions Fewer Conditions

10-Day Weather Forecast

Almanac

Astronomy

Sep. 02, 2014 Rise Set
Actual Time 6:31 AM CDT 7:41 PM CDT
Civil Twilight 6:01 AM CDT 8:11 PM CDT
Nautical Twilight 5:26 AM CDT 8:46 PM CDT
Astronomical Twilight 4:48 AM CDT 9:24 PM CDT
Moon 2:31 PM CDT No Moon Set
Length of Visible Light 14h 09m
Length of Day
13h 09m
Tomorrow will be 2m 56s shorter.
Waxing Crescent, 49% of the Moon is Illuminated
Today
Waxing Crescent
Sep 2
First Quarter
Sep 8
Full
Sep 15
Last Quarter
Sep 24
New

Today's Extremes

State Highs State Lows

Community

WunderPhotos

Upload Photos

1,749,589 photos uploaded!

WunderBlogs® & News

Nearby

Snow Depth

Station Depth Elevation
No new snow has been reported.

Earthquake Activity

City Distance Mag. Time & Date
No recent earthquake activity has been reported nearby.
Minimum magnitude displayed is 2.5.

Coastal Water Temperatures

Place Temperature
No Stations Reporting

Nearby Weather Stations